Time;durP1;ratioP1;P1;durP2;ratioP2;P2;SDS_P1;SDS_P2;PMS_P1;PMS_P2;Temp;Humidity;BMP_temperature;BMP_pressure;BME280_temperature;BME280_humidity;BME280_pressure;Samples;Min_cycle;Max_cycle;Signal;HPM_P1;HPM_P2
2022/11/11 00:01:02;;;;;;;15.07;10.20;;;;;;;12.14;75.18;102390.53;5012091;28;20055;-79
2022/11/11 00:04:06;;;;;;;18.30;9.98;;;;;;;12.26;75.54;102387.44;4970136;28;20656;-80
2022/11/11 00:07:09;;;;;;;13.07;9.13;;;;;;;12.35;76.11;102397.44;4971291;28;20061;-80
2022/11/11 00:10:12;;;;;;;16.90;10.18;;;;;;;12.24;75.07;102395.09;4971040;28;20050;-79
2022/11/11 00:13:16;;;;;;;12.45;8.95;;;;;;;12.41;76.46;102403.66;4961106;28;20043;-77
2022/11/11 00:16:20;;;;;;;10.65;8.43;;;;;;;12.31;75.46;102396.38;4951625;29;20058;-80
2022/11/11 00:26:11;;;;;;;14.85;9.45;;;;;;;12.30;75.07;102391.22;4970750;28;20057;-79
2022/11/11 00:29:14;;;;;;;;;;;;;;;12.23;73.75;102388.03;4971167;28;20509;-81
2022/11/11 00:32:29;;;;;;;11.65;7.95;;;;;;;12.15;74.37;102388.59;4968089;28;19918;-78
2022/11/11 00:38:57;;;;;;;17.52;8.95;;;;;;;11.94;75.63;102383.31;4970876;28;20054;-78
2022/11/11 00:42:00;;;;;;;11.65;8.30;;;;;;;12.28;77.78;102388.78;4970254;28;20046;-79
2022/11/11 00:45:04;;;;;;;13.02;8.90;;;;;;;12.58;77.51;102395.88;4970600;28;20053;-77
2022/11/11 00:51:30;;;;;;;15.02;9.77;;;;;;;12.73;76.90;102398.47;4951124;28;20046;-80
2022/11/11 00:54:34;;;;;;;12.38;9.27;;;;;;;12.61;76.12;102398.03;4950957;29;20046;-79
2022/11/11 00:57:37;;;;;;;12.70;8.68;;;;;;;12.47;76.04;102394.34;4951104;29;20054;-82
2022/11/11 01:00:40;;;;;;;11.40;7.82;;;;;;;12.56;77.95;102397.25;4976425;28;20043;-78
2022/11/11 01:03:43;;;;;;;11.15;8.20;;;;;;;12.58;77.66;102392.34;4951270;29;20050;-82
2022/11/11 01:06:47;;;;;;;15.15;9.05;;;;;;;12.44;75.80;102384.03;4950959;29;20058;-78
2022/11/11 01:09:51;;;;;;;13.18;7.82;;;;;;;12.40;75.51;102383.75;4952004;28;20055;-79
2022/11/11 01:13:10;;;;;;;12.00;8.30;;;;;;;12.29;75.53;102392.34;4950760;28;20046;-80
2022/11/11 01:16:17;;;;;;;12.80;7.28;;;;;;;12.33;75.92;102393.38;4951050;29;20070;-77
2022/11/11 01:19:21;;;;;;;10.55;7.45;;;;;;;12.36;75.64;102373.72;4951063;29;20062;-78
2022/11/11 01:22:24;;;;;;;10.68;7.30;;;;;;;12.29;75.56;102379.47;4950650;28;20046;-77
2022/11/11 01:25:27;;;;;;;11.23;7.30;;;;;;;12.34;76.14;102386.84;4950793;29;20051;-79
2022/11/11 01:28:32;;;;;;;11.50;7.88;;;;;;;12.45;75.61;102385.63;4951164;29;20058;-78
2022/11/11 01:31:35;;;;;;;10.57;6.72;;;;;;;12.30;75.76;102383.84;4954498;28;20034;-79
2022/11/11 01:34:38;;;;;;;9.75;7.05;;;;;;;12.27;74.72;102389.06;4970006;28;20058;-80
2022/11/11 01:37:42;;;;;;;10.32;6.28;;;;;;;12.23;74.69;102393.47;4970148;28;20062;-78
2022/11/11 01:40:47;;;;;;;10.70;7.35;;;;;;;12.28;75.02;102402.44;4968310;28;20066;-79
2022/11/11 01:43:52;;;;;;;12.90;7.53;;;;;;;12.23;74.94;102399.75;4951917;28;20054;-78
2022/11/11 01:47:03;;;;;;;11.50;7.93;;;;;;;12.19;75.17;102397.88;4954025;29;20073;-77
2022/11/11 01:50:07;;;;;;;9.30;6.22;;;;;;;12.25;75.78;102407.63;4953977;29;20274;-79
2022/11/11 01:53:10;;;;;;;9.57;6.47;;;;;;;12.28;77.19;102412.53;4962099;28;20395;-79
2022/11/11 01:56:14;;;;;;;9.35;7.05;;;;;;;12.33;75.84;102405.13;4973375;28;20046;-79
2022/11/11 01:59:18;;;;;;;12.48;7.05;;;;;;;12.33;74.54;102390.66;4972870;28;20058;-80
2022/11/11 02:02:43;;;;;;;9.13;6.88;;;;;;;12.29;74.21;102397.78;4972559;28;20049;-78
2022/11/11 02:05:47;;;;;;;11.48;6.47;;;;;;;12.26;74.68;102395.63;4960367;28;20058;-78
2022/11/11 02:08:51;;;;;;;12.40;6.32;;;;;;;12.18;74.63;102390.78;4953773;29;20413;-77
2022/11/11 02:15:20;;;;;;;9.02;6.40;;;;;;;12.16;74.41;102403.88;4958730;28;20045;-77
2022/11/11 02:18:24;;;;;;;10.88;6.43;;;;;;;12.14;75.06;102395.19;4972619;28;20050;-78
2022/11/11 02:21:40;;;;;;;8.27;5.95;;;;;;;12.29;74.51;102397.78;4970567;28;20057;-78
2022/11/11 02:24:45;;;;;;;11.07;5.93;;;;;;;12.25;73.35;102396.72;4959038;28;20054;-78
2022/11/11 02:27:52;;;;;;;7.97;6.28;;;;;;;12.16;73.74;102392.97;4953882;28;20410;-77
2022/11/11 02:30:56;;;;;;;14.75;6.25;;;;;;;12.05;73.26;102396.88;4953707;28;20516;-78
2022/11/11 02:33:59;;;;;;;9.43;6.65;;;;;;;11.96;73.32;102393.94;4953231;28;20050;-79
2022/11/11 02:37:07;;;;;;;7.25;5.47;;;;;;;11.89;73.96;102390.69;4953171;29;20556;-79
2022/11/11 02:40:15;;;;;;;10.77;5.90;;;;;;;11.96;73.93;102397.47;4952934;29;20050;-77
2022/11/11 02:43:19;;;;;;;8.60;6.15;;;;;;;11.98;73.51;102403.47;4953925;28;20410;-79
2022/11/11 02:46:22;;;;;;;8.82;6.18;;;;;;;11.91;73.81;102405.69;4952875;29;20054;-77
2022/11/11 02:49:25;;;;;;;10.98;6.30;;;;;;;11.87;74.46;102404.63;4953165;29;20050;-77
2022/11/11 02:52:29;;;;;;;11.38;6.00;;;;;;;11.84;74.67;102396.19;4953578;28;20042;-79
2022/11/11 02:55:32;;;;;;;11.55;5.82;;;;;;;11.84;74.65;102399.72;4952219;28;20054;-78
2022/11/11 02:58:35;;;;;;;10.10;6.15;;;;;;;11.88;74.80;102400.81;4952961;29;20518;-79
2022/11/11 03:01:39;;;;;;;6.85;5.13;;;;;;;11.97;74.36;102398.31;4952737;28;20434;-79
2022/11/11 03:04:42;;;;;;;8.38;5.80;;;;;;;11.82;74.99;102398.41;4953028;29;20707;-79
2022/11/11 03:07:45;;;;;;;9.63;5.85;;;;;;;11.87;74.69;102401.91;4953266;28;20057;-78
2022/11/11 03:10:49;;;;;;;8.00;6.00;;;;;;;11.82;74.26;102399.22;4952623;29;20521;-79
2022/11/11 03:13:56;;;;;;;9.23;5.88;;;;;;;11.78;74.34;102406.34;4952649;29;20058;-80
2022/11/11 03:23:45;;;;;;;10.90;5.97;;;;;;;11.74;74.16;102402.50;4971440;28;20078;-79
2022/11/11 03:26:48;;;;;;;8.90;5.68;;;;;;;11.76;73.65;102407.69;4969718;28;20050;-79
2022/11/11 03:29:51;;;;;;;6.85;5.15;;;;;;;11.62;74.31;102407.47;4952552;29;20050;-78
2022/11/11 03:32:55;;;;;;;7.53;5.38;;;;;;;11.61;74.09;102418.66;4954100;28;20046;-78
2022/11/11 03:35:58;;;;;;;8.82;4.88;;;;;;;11.61;74.20;102416.75;4961390;29;20062;-81
2022/11/11 03:39:02;;;;;;;11.45;5.50;;;;;;;11.66;74.13;102416.72;4952560;28;20054;-80
2022/11/11 03:42:05;;;;;;;7.43;4.63;;;;;;;11.58;74.52;102420.00;4951996;28;20422;-81
2022/11/11 03:45:08;;;;;;;8.35;5.63;;;;;;;11.63;74.30;102419.97;4952364;29;20406;-80
2022/11/11 03:48:13;;;;;;;6.95;5.40;;;;;;;11.69;74.20;102432.50;4956632;28;20045;-79
2022/11/11 03:51:16;;;;;;;7.70;4.82;;;;;;;11.53;74.05;102431.75;4971201;28;20054;-78
2022/11/11 03:54:20;;;;;;;7.47;5.53;;;;;;;11.53;74.05;102431.75;4971251;28;20057;-79
2022/11/11 03:57:29;;;;;;;6.55;5.00;;;;;;;11.62;74.10;102436.63;4969552;28;20058;-77
2022/11/11 04:00:33;;;;;;;7.63;5.07;;;;;;;11.55;73.18;102435.03;4971336;28;20053;-80
2022/11/11 04:10:22;;;;;;;11.48;5.20;;;;;;;11.61;73.41;102432.28;4962819;28;20057;-79
2022/11/11 04:16:49;;;;;;;7.93;5.20;;;;;;;11.36;74.12;102422.31;4970780;28;20073;-78
2022/11/11 04:23:15;;;;;;;9.95;5.88;;;;;;;11.43;74.04;102433.69;4970379;28;20054;-78
2022/11/11 04:26:18;;;;;;;7.53;5.78;;;;;;;11.41;73.30;102442.16;4970692;28;20041;-78
2022/11/11 04:29:28;;;;;;;10.80;5.18;;;;;;;11.47;74.35;102432.06;4962597;28;20061;-81
2022/11/11 04:32:34;;;;;;;8.13;5.10;;;;;;;11.43;74.36;102439.16;4951275;28;20042;-80
2022/11/11 04:35:38;;;;;;;8.32;5.30;;;;;;;11.33;73.57;102431.00;4973594;28;20066;-79
2022/11/11 04:42:03;;;;;;;8.70;4.80;;;;;;;11.35;73.86;102439.72;4959385;28;20050;-79
2022/11/11 04:48:32;;;;;;;7.60;4.77;;;;;;;11.37;73.96;102437.56;4960879;28;20070;-79
2022/11/11 04:58:23;;;;;;;6.90;4.82;;;;;;;11.12;74.43;102422.13;4955037;28;20062;-78
2022/11/11 05:04:50;;;;;;;9.65;4.63;;;;;;;11.22;74.98;102434.88;4962927;28;20062;-80
2022/11/11 05:11:17;;;;;;;7.80;5.15;;;;;;;11.14;74.74;102422.66;4951176;28;20051;-80
2022/11/11 05:21:19;;;;;;;6.63;4.90;;;;;;;11.01;73.83;102426.78;4951206;28;20402;-81
2022/11/11 05:21:24;;;;;;;7.78;5.13;;;;;;;10.94;74.68;102428.97;4962120;28;20054;-77
2022/11/11 05:27:56;;;;;;;5.43;4.35;;;;;;;11.28;72.29;102431.84;4960195;28;20054;-79
2022/11/11 05:31:00;;;;;;;6.38;4.35;;;;;;;11.29;72.63;102438.13;4969780;28;20053;-76
2022/11/11 05:34:03;;;;;;;6.53;4.15;;;;;;;11.29;72.72;102438.94;4972652;28;20049;-79
2022/11/11 05:37:06;;;;;;;5.90;4.78;;;;;;;11.21;73.35;102435.97;4973314;28;20079;-77
2022/11/11 05:40:10;;;;;;;6.38;4.47;;;;;;;11.20;73.47;102431.63;4972048;28;20066;-78
2022/11/11 05:43:14;;;;;;;7.30;4.68;;;;;;;10.96;73.81;102455.91;4983243;28;20070;-76
2022/11/11 05:46:17;;;;;;;6.93;4.22;;;;;;;10.73;74.30;102451.84;4974116;28;20058;-76
2022/11/11 05:49:22;;;;;;;7.93;4.65;;;;;;;10.73;74.03;102452.66;4954049;29;20050;-77
2022/11/11 05:52:26;;;;;;;4.47;3.72;;;;;;;10.71;73.21;102443.16;4972284;28;20053;-77
2022/11/11 05:55:29;;;;;;;6.13;3.95;;;;;;;10.84;72.55;102453.47;4973537;28;20406;-77
2022/11/11 05:58:32;;;;;;;4.90;4.18;;;;;;;10.67;72.90;102463.81;4954259;29;20054;-77
2022/11/11 06:01:37;;;;;;;10.45;4.28;;;;;;;10.73;72.50;102471.72;4961281;28;20413;-79
2022/11/11 06:04:40;;;;;;;5.63;3.97;;;;;;;10.64;72.44;102464.38;4954393;29;20074;-77
2022/11/11 06:07:44;;;;;;;9.57;5.18;;;;;;;10.71;72.88;102468.47;4954170;29;20054;-77
2022/11/11 06:10:47;;;;;;;15.15;4.55;;;;;;;10.68;73.32;102471.72;4972825;28;20057;-77
2022/11/11 06:13:50;;;;;;;9.02;4.30;;;;;;;10.64;74.20;102476.06;4954952;28;20438;-78
2022/11/11 06:16:54;;;;;;;6.45;3.70;;;;;;;10.81;73.79;102486.69;4953857;29;20050;-78
2022/11/11 06:19:57;;;;;;;8.15;4.10;;;;;;;10.40;74.97;102480.41;4969256;28;20069;-77
2022/11/11 06:23:03;;;;;;;5.88;3.75;;;;;;;10.31;76.61;102481.22;4973889;28;20054;-78
2022/11/11 06:26:15;;;;;;;5.25;3.45;;;;;;;10.04;77.80;102475.97;4970054;28;20678;-78
2022/11/11 06:29:18;;;;;;;9.73;4.50;;;;;;;9.71;79.51;102469.06;4996410;28;20066;-78
2022/11/11 06:32:21;;;;;;;13.93;5.45;;;;;;;9.79;80.06;102474.00;4955310;28;20521;-80
2022/11/11 06:35:25;;;;;;;17.95;5.05;;;;;;;9.86;78.58;102469.13;4954159;29;20426;-77
2022/11/11 06:38:28;;;;;;;5.18;4.22;;;;;;;9.74;78.83;102472.09;4973775;28;20823;-80
2022/11/11 06:41:32;;;;;;;11.70;4.10;;;;;;;9.56;80.76;102474.44;4969594;28;20046;-77
2022/11/11 06:44:35;;;;;;;7.55;4.50;;;;;;;9.63;80.68;102472.31;4953224;29;20050;-77
2022/11/11 06:47:40;;;;;;;7.28;4.57;;;;;;;9.55;80.78;102472.81;4953668;29;20066;-76
2022/11/11 06:50:44;;;;;;;8.60;5.40;;;;;;;9.20;82.91;102482.41;4953742;29;20050;-78
2022/11/11 06:53:48;;;;;;;9.13;5.32;;;;;;;9.62;82.06;102470.66;4961531;28;20053;-76
2022/11/11 06:56:52;;;;;;;7.57;4.28;;;;;;;10.01;79.86;102465.63;4966830;28;20047;-78
2022/11/11 06:59:55;;;;;;;9.52;5.72;;;;;;;10.27;78.58;102475.50;4965380;28;20406;-78
2022/11/11 07:02:59;;;;;;;12.02;4.78;;;;;;;9.84;81.67;102487.59;4956216;28;20050;-78
2022/11/11 07:06:05;;;;;;;12.50;5.10;;;;;;;10.00;81.25;102481.13;4969559;28;20061;-78
2022/11/11 07:09:10;;;;;;;11.30;4.95;;;;;;;10.47;81.01;102480.13;4972714;28;20046;-78
2022/11/11 07:12:13;;;;;;;14.70;5.18;;;;;;;10.75;79.46;102466.00;4971970;28;20061;-78
2022/11/11 07:15:17;;;;;;;15.35;6.28;;;;;;;11.03;78.09;102478.19;4972410;28;20425;-79
2022/11/11 07:18:21;;;;;;;12.88;4.47;;;;;;;10.81;80.93;102470.34;4957262;28;20062;-78
2022/11/11 07:21:24;;;;;;;5.22;3.85;;;;;;;10.82;82.52;102479.34;4952934;28;20513;-78
2022/11/11 07:24:27;;;;;;;6.13;3.67;;;;;;;11.34;81.19;102470.78;4953013;28;20055;-78
2022/11/11 07:27:34;;;;;;;8.75;4.43;;;;;;;11.75;77.24;102480.47;4953288;28;20054;-78
2022/11/11 07:30:38;;;;;;;6.85;3.30;;;;;;;11.74;77.10;102492.44;4952593;28;20062;-78
2022/11/11 07:33:43;;;;;;;11.57;3.80;;;;;;;11.67;78.39;102485.66;4955895;28;20521;-78
2022/11/11 07:36:47;;;;;;;5.47;3.25;;;;;;;11.80;77.59;102496.78;4956677;28;20074;-78
2022/11/11 07:39:51;;;;;;;8.02;3.40;;;;;;;12.02;76.42;102501.06;4991350;28;20070;-78
2022/11/11 07:42:54;;;;;;;10.70;3.17;;;;;;;12.34;76.76;102499.47;5006537;28;20059;-79
2022/11/11 07:45:58;;;;;;;6.53;3.83;;;;;;;12.25;77.72;102508.53;4976101;28;20050;-79
2022/11/11 07:49:01;;;;;;;8.02;3.90;;;;;;;12.18;79.59;102513.50;5075485;28;20055;-78
2022/11/11 07:52:04;;;;;;;7.90;4.03;;;;;;;12.33;78.02;102500.59;5074114;28;20051;-76
2022/11/11 07:55:08;;;;;;;11.20;3.58;;;;;;;12.84;77.85;102509.22;5001456;28;20093;-78
2022/11/11 07:58:12;;;;;;;20.13;5.20;;;;;;;13.32;75.21;102528.44;4973664;28;20054;-78
2022/11/11 08:01:16;;;;;;;17.33;4.28;;;;;;;13.24;75.97;102518.16;4972713;28;20159;-78
2022/11/11 08:04:19;;;;;;;9.60;4.90;;;;;;;13.15;77.38;102522.63;4993151;28;20044;-78
2022/11/11 08:07:22;;;;;;;9.90;4.30;;;;;;;13.06;76.53;102527.00;4965395;28;20066;-78
2022/11/11 08:10:26;;;;;;;8.60;4.18;;;;;;;12.99;77.31;102518.34;4974011;28;20054;-78
2022/11/11 08:13:42;;;;;;;14.35;3.33;;;;;;;12.94;76.87;102515.69;4971760;28;20508;-78
2022/11/11 08:16:46;;;;;;;8.75;3.63;;;;;;;12.84;77.45;102514.66;4973624;28;20058;-78
2022/11/11 08:19:49;;;;;;;5.10;3.85;;;;;;;12.80;77.73;102512.78;4973133;28;20053;-78
2022/11/11 08:22:54;;;;;;;7.88;4.15;;;;;;;12.81;77.83;102517.94;4976177;28;21885;-77
2022/11/11 08:26:03;;;;;;;9.37;3.77;;;;;;;12.89;77.74;102518.44;4984283;28;20521;-77
2022/11/11 08:29:06;;;;;;;10.85;4.10;;;;;;;13.01;77.10;102518.88;4971333;28;20050;-78
2022/11/11 08:32:10;;;;;;;7.07;4.07;;;;;;;13.20;77.23;102528.03;4972330;28;20069;-78
2022/11/11 08:35:14;;;;;;;5.33;2.70;;;;;;;13.31;77.19;102529.53;4973556;28;20054;-78
2022/11/11 08:38:19;;;;;;;7.22;3.45;;;;;;;13.28;76.58;102539.13;4970586;28;20293;-78
2022/11/11 08:41:23;;;;;;;6.63;3.95;;;;;;;13.34;76.82;102530.88;4975007;28;20053;-79
2022/11/11 08:44:26;;;;;;;9.10;4.20;;;;;;;13.41;76.91;102525.91;4968000;28;20054;-78
2022/11/11 08:47:29;;;;;;;5.75;3.42;;;;;;;13.51;76.62;102537.50;4953175;29;20050;-78
2022/11/11 08:50:33;;;;;;;11.75;4.53;;;;;;;13.62;75.22;102539.03;4955646;29;20054;-78
2022/11/11 08:53:37;;;;;;;7.88;3.70;;;;;;;13.68;74.85;102545.25;4964162;28;20046;-78
2022/11/11 08:56:40;;;;;;;7.47;3.90;;;;;;;13.89;75.05;102545.81;4973822;28;20058;-76
2022/11/11 08:59:44;;;;;;;8.32;3.70;;;;;;;13.86;75.05;102541.78;4971980;28;20074;-78
2022/11/11 09:02:48;;;;;;;9.88;4.22;;;;;;;13.91;74.62;102543.63;4981300;28;20053;-78
2022/11/11 09:05:52;;;;;;;9.73;4.80;;;;;;;14.03;75.13;102552.19;4972723;28;20054;-77
2022/11/11 09:08:56;;;;;;;9.75;4.78;;;;;;;14.17;74.10;102542.16;4965472;28;20077;-77
2022/11/11 09:12:00;;;;;;;6.40;3.38;;;;;;;14.29;74.03;102549.94;4973060;28;20054;-77
2022/11/11 09:15:04;;;;;;;7.32;3.42;;;;;;;14.62;76.27;102551.69;4975917;28;20074;-78
2022/11/11 09:18:09;;;;;;;16.05;3.90;;;;;;;14.73;72.99;102552.34;4973773;28;20042;-79
2022/11/11 09:21:13;;;;;;;8.50;3.42;;;;;;;14.90;70.28;102544.38;4971535;28;20413;-79
2022/11/11 09:24:16;;;;;;;8.98;2.75;;;;;;;14.95;71.20;102552.50;4968304;28;20041;-77
2022/11/11 09:27:19;;;;;;;5.20;3.13;;;;;;;15.34;70.43;102550.16;4971653;28;20460;-77
2022/11/11 09:30:24;;;;;;;18.02;4.55;;;;;;;15.46;69.83;102565.31;4951366;29;20169;-77
2022/11/11 09:33:29;;;;;;;10.93;3.00;;;;;;;15.51;68.70;102570.69;4951237;28;20055;-78
2022/11/11 09:36:32;;;;;;;9.18;3.30;;;;;;;15.54;69.04;102567.41;4951129;29;20070;-76
2022/11/11 09:39:36;;;;;;;10.75;3.20;;;;;;;15.61;68.65;102581.50;4950702;29;20414;-75
2022/11/11 09:42:47;;;;;;;10.90;3.72;;;;;;;15.59;69.82;102581.00;4949998;28;20046;-75
2022/11/11 09:46:05;;;;;;;6.40;4.15;;;;;;;15.35;69.95;102579.19;4950509;29;20046;-75
2022/11/11 09:49:18;;;;;;;8.63;4.60;;;;;;;15.41;70.12;102588.16;4950274;29;20050;-76
2022/11/11 09:52:50;;;;;;;8.63;4.28;;;;;;;15.39;69.74;102590.38;4953645;28;20073;-76
2022/11/11 09:56:02;;;;;;;11.50;4.38;;;;;;;15.46;69.96;102595.47;4980068;28;20050;-75
2022/11/11 09:59:25;;;;;;;10.07;3.85;;;;;;;15.36;69.24;102591.78;4969369;28;20051;-75
2022/11/11 10:03:01;;;;;;;10.73;3.80;;;;;;;15.30;69.31;102587.50;4959759;28;20050;-75
2022/11/11 10:06:20;;;;;;;7.00;4.22;;;;;;;15.43;68.92;102590.59;4970568;28;20054;-77
2022/11/11 10:09:44;;;;;;;5.70;3.90;;;;;;;15.47;70.35;102591.63;4969479;28;20054;-78
2022/11/11 10:12:56;;;;;;;6.60;4.03;;;;;;;15.57;70.48;102594.19;4968650;28;20528;-77
2022/11/11 10:16:11;;;;;;;5.18;3.90;;;;;;;15.48;69.99;102588.59;4968010;28;20050;-75
2022/11/11 10:19:18;;;;;;;7.30;4.40;;;;;;;15.67;70.60;102586.59;4974262;28;20104;-75
2022/11/11 10:22:30;;;;;;;6.05;3.90;;;;;;;15.56;70.82;102587.91;4967380;28;20209;-77
2022/11/11 10:25:35;;;;;;;8.85;4.03;;;;;;;15.41;71.31;102590.88;4973469;28;20054;-77
2022/11/11 10:28:43;;;;;;;11.18;5.22;;;;;;;15.27;72.65;102579.91;4967862;28;20045;-78
2022/11/11 10:31:57;;;;;;;8.88;4.72;;;;;;;15.25;71.85;102575.81;4974993;28;20428;-78
2022/11/11 10:35:19;;;;;;;6.70;4.43;;;;;;;15.21;71.34;102569.31;4975908;28;20042;-80
2022/11/11 10:38:57;;;;;;;7.30;4.35;;;;;;;15.24;72.85;102576.94;4970945;28;20078;-76
2022/11/11 10:42:00;;;;;;;8.20;4.72;;;;;;;15.23;73.42;102578.88;4999754;28;20047;-80
2022/11/11 10:45:30;;;;;;;8.32;5.32;;;;;;;15.31;73.81;102577.38;4975667;28;20046;-78
2022/11/11 10:48:52;;;;;;;6.20;4.68;;;;;;;15.23;74.09;102575.34;4972640;28;20053;-78
2022/11/11 10:52:07;;;;;;;9.77;5.68;;;;;;;15.25;74.09;102576.66;4974897;28;20395;-77
2022/11/11 10:55:21;;;;;;;10.68;6.82;;;;;;;15.32;75.53;102574.34;4973687;28;20046;-78
2022/11/11 10:58:48;;;;;;;9.95;6.47;;;;;;;15.35;75.42;102573.72;4966504;28;20057;-78
2022/11/11 11:02:23;;;;;;;12.48;7.13;;;;;;;15.39;74.74;102582.97;4971072;28;20069;-79
2022/11/11 11:05:46;;;;;;;9.57;6.65;;;;;;;15.37;75.96;102579.72;4969257;28;20058;-78
2022/11/11 11:08:54;;;;;;;12.70;7.80;;;;;;;15.38;75.96;102564.09;4975678;28;20050;-79
2022/11/11 11:12:05;;;;;;;11.40;6.65;;;;;;;15.40;74.12;102564.59;4969126;28;20541;-78
2022/11/11 11:15:16;;;;;;;11.25;8.02;;;;;;;15.47;75.24;102575.16;4956461;29;20406;-78
2022/11/11 11:18:19;;;;;;;10.60;6.95;;;;;;;15.41;75.27;102567.03;4954870;29;20441;-78
2022/11/11 11:21:23;;;;;;;14.73;7.97;;;;;;;15.49;75.42;102561.97;4975877;28;20054;-78
2022/11/11 11:24:32;;;;;;;11.23;8.25;;;;;;;15.43;74.66;102544.00;4968414;28;20058;-78
2022/11/11 11:27:35;;;;;;;9.80;7.50;;;;;;;15.47;75.11;102543.06;4974095;28;20520;-78
2022/11/11 11:30:56;;;;;;;11.05;7.78;;;;;;;15.54;74.48;102545.47;4972134;28;20053;-77
2022/11/11 11:34:01;;;;;;;11.15;6.93;;;;;;;15.51;74.11;102556.97;4956881;28;20046;-77
2022/11/11 11:37:05;;;;;;;12.63;7.18;;;;;;;15.55;74.11;102539.66;4952996;29;20050;-77
2022/11/11 11:40:09;;;;;;;9.57;7.35;;;;;;;15.55;73.75;102536.09;4956509;28;20050;-78
2022/11/11 11:43:36;;;;;;;11.57;7.72;;;;;;;15.64;73.66;102537.03;4962088;28;20066;-79
2022/11/11 11:46:44;;;;;;;11.48;7.88;;;;;;;15.67;74.84;102531.75;4980260;28;20054;-78
2022/11/11 11:50:05;;;;;;;18.50;7.78;;;;;;;15.75;74.72;102538.44;4966211;28;20045;-78
2022/11/11 11:53:41;;;;;;;10.63;7.70;;;;;;;15.80;74.41;102528.16;4996637;28;20424;-79
2022/11/11 11:56:49;;;;;;;11.60;8.48;;;;;;;15.83;74.17;102524.84;4969320;28;20053;-78
2022/11/11 12:00:06;;;;;;;12.77;8.38;;;;;;;15.83;74.72;102513.84;4967339;28;20045;-77
2022/11/11 12:03:28;;;;;;;10.27;8.15;;;;;;;15.86;74.80;102517.91;4967487;28;20093;-78
2022/11/11 12:06:44;;;;;;;14.07;9.27;;;;;;;15.88;75.83;102518.41;4957817;28;20054;-78
2022/11/11 12:09:50;;;;;;;13.95;10.52;;;;;;;15.87;75.29;102507.75;4976579;28;20054;-78
2022/11/11 12:13:11;;;;;;;14.80;9.57;;;;;;;15.87;74.92;102514.03;4962590;28;20043;-79
2022/11/11 12:16:25;;;;;;;17.85;11.85;;;;;;;15.90;75.11;102502.44;4968361;28;20050;-78
2022/11/11 12:19:38;;;;;;;17.52;10.25;;;;;;;16.01;74.66;102500.28;4972931;28;20050;-79
2022/11/11 12:22:56;;;;;;;17.70;10.50;;;;;;;16.05;73.92;102507.59;4975155;28;20042;-79
2022/11/11 12:26:00;;;;;;;14.82;11.07;;;;;;;16.06;73.92;102502.94;4972879;28;20051;-78
2022/11/11 12:29:13;;;;;;;16.70;11.27;;;;;;;16.05;73.84;102499.38;4978794;28;20042;-80
2022/11/11 12:32:51;;;;;;;27.48;13.02;;;;;;;16.15;74.12;102499.13;4975509;28;20050;-77
2022/11/11 12:36:00;;;;;;;19.25;13.82;;;;;;;16.20;74.29;102501.75;4976129;28;20406;-77
2022/11/11 12:39:20;;;;;;;17.65;13.43;;;;;;;16.24;74.65;102505.53;4975428;28;20034;-77
2022/11/11 12:42:27;;;;;;;23.33;14.45;;;;;;;16.29;74.00;102501.06;4977428;28;20042;-78
2022/11/11 12:46:01;;;;;;;19.85;12.07;;;;;;;16.27;74.14;102496.66;4969869;28;20035;-77
2022/11/11 12:49:33;;;;;;;21.02;14.30;;;;;;;16.25;73.32;102496.16;4979436;28;20042;-78
2022/11/11 12:53:07;;;;;;;20.35;11.30;;;;;;;16.19;73.38;102497.41;4957356;28;20035;-79
2022/11/11 12:56:45;;;;;;;20.63;13.23;;;;;;;16.18;73.59;102493.03;4960079;28;20645;-78
2022/11/11 13:00:18;;;;;;;23.55;12.93;;;;;;;16.13;73.03;102498.66;4956682;28;20058;-79
2022/11/11 13:03:43;;;;;;;20.20;12.98;;;;;;;16.23;73.32;102495.69;4954463;28;20043;-79
2022/11/11 13:07:08;;;;;;;17.42;13.15;;;;;;;16.32;73.55;102494.94;4985767;28;20042;-80
2022/11/11 13:10:19;;;;;;;17.42;13.13;;;;;;;16.32;73.00;102498.47;4976952;28;20034;-80
2022/11/11 13:13:48;;;;;;;21.48;13.43;;;;;;;16.39;72.56;102492.56;4986135;28;20050;-78
2022/11/11 13:16:56;;;;;;;25.15;11.88;;;;;;;16.35;72.60;102497.06;4971343;28;20038;-79
2022/11/11 13:20:12;;;;;;;25.33;15.73;;;;;;;16.42;73.29;102490.00;4977442;28;20417;-77
2022/11/11 13:23:16;;;;;;;18.67;12.10;;;;;;;16.48;72.59;102496.19;4992697;22;20054;-81
2022/11/11 13:26:32;;;;;;;21.02;12.52;;;;;;;16.47;72.43;102497.31;4962075;28;20509;-81
2022/11/11 13:29:55;;;;;;;18.42;12.95;;;;;;;16.47;72.68;102505.53;4968540;28;20051;-80
2022/11/11 13:33:06;;;;;;;18.80;12.98;;;;;;;16.43;72.22;102501.81;4968892;28;20051;-80
2022/11/11 13:36:20;;;;;;;25.65;15.90;;;;;;;16.45;71.99;102499.56;4970025;28;20417;-80
2022/11/11 13:39:29;;;;;;;22.50;11.85;;;;;;;16.45;72.67;102502.31;4968709;28;20046;-80
2022/11/11 13:42:45;;;;;;;19.63;13.80;;;;;;;16.44;72.28;102501.50;4973417;28;20051;-81
2022/11/11 13:45:52;;;;;;;26.60;16.15;;;;;;;16.51;72.84;102501.88;4973270;28;20043;-81
2022/11/11 13:48:56;;;;;;;22.33;15.23;;;;;;;16.51;72.51;102495.56;4971653;28;20039;-80
2022/11/11 13:52:17;;;;;;;25.30;15.98;;;;;;;16.53;72.17;102498.81;5011916;28;20240;-81
2022/11/11 13:55:46;;;;;;;20.10;13.55;;;;;;;16.57;71.85;102499.81;4980118;28;20047;-79
2022/11/11 13:58:50;;;;;;;25.98;15.95;;;;;;;16.54;71.71;102495.75;4963414;28;20418;-81
2022/11/11 14:02:25;;;;;;;21.52;12.30;;;;;;;16.66;71.49;102487.78;4959322;28;20502;-81
2022/11/11 14:05:29;;;;;;;22.92;15.70;;;;;;;16.61;71.73;102490.66;4964131;28;20047;-81
2022/11/11 14:08:44;;;;;;;23.55;14.30;;;;;;;16.65;71.66;102494.44;4938988;28;20030;-81
2022/11/11 14:11:48;;;;;;;19.55;9.55;;;;;;;16.62;71.43;102500.53;4953560;29;20043;-81
2022/11/11 14:14:55;;;;;;;19.30;12.50;;;;;;;16.62;71.60;102500.53;4953601;28;20047;-82
2022/11/11 14:18:02;;;;;;;21.60;13.45;;;;;;;16.63;71.23;102504.91;4975281;28;20043;-81
2022/11/11 14:21:07;;;;;;;15.90;10.85;;;;;;;16.62;71.16;102502.47;4970533;28;20040;-81
2022/11/11 14:24:22;;;;;;;23.67;13.00;;;;;;;16.63;71.31;102504.09;4954381;28;20055;-81
2022/11/11 14:27:30;;;;;;;18.05;11.38;;;;;;;16.62;71.37;102516.19;4990061;28;20043;-81
2022/11/11 14:30:38;;;;;;;20.38;13.60;;;;;;;16.61;71.10;102504.38;4950220;28;20047;-81
2022/11/11 14:33:55;;;;;;;19.00;12.95;;;;;;;16.64;71.27;102511.22;4948850;28;20526;-80
2022/11/11 14:37:26;;;;;;;20.55;13.05;;;;;;;16.64;70.83;102506.53;4934083;29;20044;-81
2022/11/11 14:40:32;;;;;;;27.10;12.30;;;;;;;16.61;70.72;102506.31;4971560;28;20414;-80
2022/11/11 14:43:39;;;;;;;19.00;13.13;;;;;;;16.61;70.76;102511.81;4948018;28;20047;-80
2022/11/11 14:47:01;;;;;;;18.77;12.45;;;;;;;16.63;70.80;102504.09;4952992;28;20044;-80
2022/11/11 14:50:26;;;;;;;19.15;12.43;;;;;;;16.58;71.17;102498.69;4961395;28;20043;-80
2022/11/11 14:53:37;;;;;;;24.42;12.68;;;;;;;16.53;71.72;102496.06;4944400;28;20426;-80
2022/11/11 14:56:41;;;;;;;21.98;13.73;;;;;;;16.49;72.05;102486.84;4958573;28;20047;-80
2022/11/11 14:59:46;;;;;;;21.20;12.57;;;;;;;16.49;72.47;102486.84;4968945;28;20046;-81
2022/11/11 15:02:55;;;;;;;16.97;10.77;;;;;;;16.48;72.18;102496.19;4971666;28;20130;-81
2022/11/11 15:06:04;;;;;;;23.48;14.98;;;;;;;16.48;72.09;102498.94;4971888;28;20298;-81
2022/11/11 15:09:48;;;;;;;20.90;9.57;;;;;;;16.55;71.74;102504.81;4972102;28;20508;-81
2022/11/11 15:13:11;;;;;;;29.55;14.02;;;;;;;16.55;71.99;102496.56;4933456;29;20050;-81
2022/11/11 15:16:35;;;;;;;28.42;15.82;;;;;;;16.52;71.67;102498.00;4944542;28;20043;-81
2022/11/11 15:20:00;;;;;;;26.52;15.32;;;;;;;16.51;71.61;102501.06;4971464;28;20043;-81
2022/11/11 15:23:28;;;;;;;26.38;14.50;;;;;;;16.49;71.92;102490.41;4970973;28;20043;-81
2022/11/11 15:27:09;;;;;;;26.60;16.73;;;;;;;16.47;72.22;102489.88;4993652;28;20047;-81
2022/11/11 15:30:15;;;;;;;26.63;14.55;;;;;;;16.42;72.44;102492.75;4951714;29;20051;-80
2022/11/11 15:33:34;;;;;;;21.35;13.38;;;;;;;16.42;71.75;102491.94;4932794;29;20052;-81
2022/11/11 15:37:01;;;;;;;23.70;12.88;;;;;;;16.35;70.85;102483.34;4950249;28;20406;-81